sensor_id;sensor_type;location;lat;lon;timestamp;P1;durP1;ratioP1;P2;durP2;ratioP2
16957;SDS011;8595;52.542;11.974;2022-07-06T00:02:00;5.28;;;1.45;;
16957;SDS011;8595;52.542;11.974;2022-07-06T00:04:29;2.38;;;1.80;;
16957;SDS011;8595;52.542;11.974;2022-07-06T00:06:55;5.38;;;1.65;;
16957;SDS011;8595;52.542;11.974;2022-07-06T00:09:22;4.65;;;2.03;;
16957;SDS011;8595;52.542;11.974;2022-07-06T00:11:49;4.60;;;1.80;;
16957;SDS011;8595;52.542;11.974;2022-07-06T00:14:15;2.15;;;1.80;;
16957;SDS011;8595;52.542;11.974;2022-07-06T00:16:42;3.50;;;1.75;;
16957;SDS011;8595;52.542;11.974;2022-07-06T00:19:09;5.07;;;1.90;;
16957;SDS011;8595;52.542;11.974;2022-07-06T00:21:36;2.72;;;1.70;;
16957;SDS011;8595;52.542;11.974;2022-07-06T00:24:03;2.97;;;1.60;;
16957;SDS011;8595;52.542;11.974;2022-07-06T00:26:30;2.58;;;1.58;;
16957;SDS011;8595;52.542;11.974;2022-07-06T00:28:57;1.92;;;1.80;;
16957;SDS011;8595;52.542;11.974;2022-07-06T00:31:24;5.00;;;2.33;;
16957;SDS011;8595;52.542;11.974;2022-07-06T00:33:51;6.72;;;2.40;;
16957;SDS011;8595;52.542;11.974;2022-07-06T00:36:17;3.38;;;1.50;;
16957;SDS011;8595;52.542;11.974;2022-07-06T00:38:45;6.80;;;2.30;;
16957;SDS011;8595;52.542;11.974;2022-07-06T00:41:12;3.28;;;1.73;;
16957;SDS011;8595;52.542;11.974;2022-07-06T00:43:48;2.50;;;1.85;;
16957;SDS011;8595;52.542;11.974;2022-07-06T00:46:16;4.85;;;1.90;;
16957;SDS011;8595;52.542;11.974;2022-07-06T00:48:43;5.57;;;2.17;;
16957;SDS011;8595;52.542;11.974;2022-07-06T00:51:10;5.90;;;2.13;;
16957;SDS011;8595;52.542;11.974;2022-07-06T00:53:37;3.13;;;1.60;;
16957;SDS011;8595;52.542;11.974;2022-07-06T00:56:05;3.35;;;1.65;;
16957;SDS011;8595;52.542;11.974;2022-07-06T00:58:32;4.45;;;2.22;;
16957;SDS011;8595;52.542;11.974;2022-07-06T01:00:59;4.85;;;2.20;;
16957;SDS011;8595;52.542;11.974;2022-07-06T01:03:26;5.57;;;2.10;;
16957;SDS011;8595;52.542;11.974;2022-07-06T01:05:52;7.45;;;2.10;;
16957;SDS011;8595;52.542;11.974;2022-07-06T01:08:19;4.85;;;2.20;;
16957;SDS011;8595;52.542;11.974;2022-07-06T01:10:46;3.30;;;1.52;;
16957;SDS011;8595;52.542;11.974;2022-07-06T01:13:14;6.95;;;1.95;;
16957;SDS011;8595;52.542;11.974;2022-07-06T01:15:40;8.52;;;1.92;;
16957;SDS011;8595;52.542;11.974;2022-07-06T01:18:09;7.13;;;2.70;;
16957;SDS011;8595;52.542;11.974;2022-07-06T01:20:38;2.80;;;1.92;;
16957;SDS011;8595;52.542;11.974;2022-07-06T01:23:04;3.75;;;1.80;;
16957;SDS011;8595;52.542;11.974;2022-07-06T01:25:31;3.53;;;1.80;;
16957;SDS011;8595;52.542;11.974;2022-07-06T01:27:58;6.65;;;2.50;;
16957;SDS011;8595;52.542;11.974;2022-07-06T01:30:25;5.95;;;2.30;;
16957;SDS011;8595;52.542;11.974;2022-07-06T01:32:51;5.10;;;2.53;;
16957;SDS011;8595;52.542;11.974;2022-07-06T01:35:18;4.72;;;2.00;;
16957;SDS011;8595;52.542;11.974;2022-07-06T01:37:46;5.25;;;2.50;;
16957;SDS011;8595;52.542;11.974;2022-07-06T01:40:13;3.42;;;2.10;;
16957;SDS011;8595;52.542;11.974;2022-07-06T01:42:41;2.97;;;1.77;;
16957;SDS011;8595;52.542;11.974;2022-07-06T01:45:08;3.88;;;2.00;;
16957;SDS011;8595;52.542;11.974;2022-07-06T01:47:36;4.40;;;1.88;;
16957;SDS011;8595;52.542;11.974;2022-07-06T01:50:04;9.23;;;2.47;;
16957;SDS011;8595;52.542;11.974;2022-07-06T01:52:32;4.38;;;2.58;;
16957;SDS011;8595;52.542;11.974;2022-07-06T01:55:00;7.63;;;2.33;;
16957;SDS011;8595;52.542;11.974;2022-07-06T01:57:27;6.68;;;1.90;;
16957;SDS011;8595;52.542;11.974;2022-07-06T01:59:53;3.05;;;2.10;;
16957;SDS011;8595;52.542;11.974;2022-07-06T02:02:20;7.53;;;2.08;;
16957;SDS011;8595;52.542;11.974;2022-07-06T02:04:47;4.53;;;2.13;;
16957;SDS011;8595;52.542;11.974;2022-07-06T02:07:13;2.20;;;1.73;;
16957;SDS011;8595;52.542;11.974;2022-07-06T02:09:40;5.68;;;2.65;;
16957;SDS011;8595;52.542;11.974;2022-07-06T02:12:08;3.67;;;2.17;;
16957;SDS011;8595;52.542;11.974;2022-07-06T02:14:35;4.90;;;2.42;;
16957;SDS011;8595;52.542;11.974;2022-07-06T02:17:01;6.63;;;2.38;;
16957;SDS011;8595;52.542;11.974;2022-07-06T02:19:28;3.38;;;2.58;;
16957;SDS011;8595;52.542;11.974;2022-07-06T02:21:55;8.27;;;2.15;;
16957;SDS011;8595;52.542;11.974;2022-07-06T02:24:21;5.65;;;2.35;;
16957;SDS011;8595;52.542;11.974;2022-07-06T02:26:48;3.83;;;1.83;;
16957;SDS011;8595;52.542;11.974;2022-07-06T02:29:16;3.47;;;2.22;;
16957;SDS011;8595;52.542;11.974;2022-07-06T02:31:43;4.18;;;2.42;;
16957;SDS011;8595;52.542;11.974;2022-07-06T02:34:09;5.30;;;2.63;;
16957;SDS011;8595;52.542;11.974;2022-07-06T02:36:36;3.65;;;2.40;;
16957;SDS011;8595;52.542;11.974;2022-07-06T02:39:02;4.18;;;2.78;;
16957;SDS011;8595;52.542;11.974;2022-07-06T02:41:29;5.97;;;2.65;;
16957;SDS011;8595;52.542;11.974;2022-07-06T02:43:56;7.45;;;2.70;;
16957;SDS011;8595;52.542;11.974;2022-07-06T02:46:24;5.93;;;2.63;;
16957;SDS011;8595;52.542;11.974;2022-07-06T02:48:50;4.57;;;2.60;;
16957;SDS011;8595;52.542;11.974;2022-07-06T02:51:17;7.60;;;2.70;;
16957;SDS011;8595;52.542;11.974;2022-07-06T02:53:43;5.00;;;2.58;;
16957;SDS011;8595;52.542;11.974;2022-07-06T02:56:10;5.10;;;2.42;;
16957;SDS011;8595;52.542;11.974;2022-07-06T02:58:37;3.80;;;2.40;;
16957;SDS011;8595;52.542;11.974;2022-07-06T03:01:03;5.93;;;2.80;;
16957;SDS011;8595;52.542;11.974;2022-07-06T03:03:32;4.22;;;2.15;;
16957;SDS011;8595;52.542;11.974;2022-07-06T03:05:58;4.50;;;2.90;;
16957;SDS011;8595;52.542;11.974;2022-07-06T03:08:25;6.03;;;2.58;;
16957;SDS011;8595;52.542;11.974;2022-07-06T03:10:51;12.55;;;3.22;;
16957;SDS011;8595;52.542;11.974;2022-07-06T03:13:18;4.47;;;2.42;;
16957;SDS011;8595;52.542;11.974;2022-07-06T03:15:45;9.90;;;2.50;;
16957;SDS011;8595;52.542;11.974;2022-07-06T03:18:11;5.45;;;2.38;;
16957;SDS011;8595;52.542;11.974;2022-07-06T03:20:39;5.28;;;2.20;;
16957;SDS011;8595;52.542;11.974;2022-07-06T03:23:06;6.55;;;2.70;;
16957;SDS011;8595;52.542;11.974;2022-07-06T03:25:32;5.82;;;2.42;;
16957;SDS011;8595;52.542;11.974;2022-07-06T03:27:59;6.93;;;2.63;;
16957;SDS011;8595;52.542;11.974;2022-07-06T03:30:26;5.10;;;2.80;;
16957;SDS011;8595;52.542;11.974;2022-07-06T03:32:52;4.25;;;2.63;;
16957;SDS011;8595;52.542;11.974;2022-07-06T03:35:19;3.95;;;2.97;;
16957;SDS011;8595;52.542;11.974;2022-07-06T03:37:47;4.78;;;2.70;;
16957;SDS011;8595;52.542;11.974;2022-07-06T03:40:14;4.70;;;2.35;;
16957;SDS011;8595;52.542;11.974;2022-07-06T03:42:40;7.50;;;2.40;;
16957;SDS011;8595;52.542;11.974;2022-07-06T03:45:08;4.65;;;2.45;;
16957;SDS011;8595;52.542;11.974;2022-07-06T03:47:35;5.60;;;2.75;;
16957;SDS011;8595;52.542;11.974;2022-07-06T03:50:02;7.15;;;2.38;;
16957;SDS011;8595;52.542;11.974;2022-07-06T03:52:29;5.75;;;2.90;;
16957;SDS011;8595;52.542;11.974;2022-07-06T03:54:57;9.07;;;2.58;;
16957;SDS011;8595;52.542;11.974;2022-07-06T03:57:23;4.45;;;2.10;;
16957;SDS011;8595;52.542;11.974;2022-07-06T03:59:50;6.65;;;3.22;;
16957;SDS011;8595;52.542;11.974;2022-07-06T04:02:17;6.35;;;2.70;;
16957;SDS011;8595;52.542;11.974;2022-07-06T04:04:44;4.38;;;2.30;;
16957;SDS011;8595;52.542;11.974;2022-07-06T04:07:10;9.45;;;2.75;;
16957;SDS011;8595;52.542;11.974;2022-07-06T04:09:37;4.70;;;2.15;;
16957;SDS011;8595;52.542;11.974;2022-07-06T04:12:05;5.75;;;2.50;;
16957;SDS011;8595;52.542;11.974;2022-07-06T04:14:32;3.55;;;2.50;;
16957;SDS011;8595;52.542;11.974;2022-07-06T04:17:00;4.65;;;2.45;;
16957;SDS011;8595;52.542;11.974;2022-07-06T04:19:47;5.22;;;2.80;;
16957;SDS011;8595;52.542;11.974;2022-07-06T04:22:14;6.28;;;3.08;;
16957;SDS011;8595;52.542;11.974;2022-07-06T04:24:40;3.83;;;2.60;;
16957;SDS011;8595;52.542;11.974;2022-07-06T04:27:08;6.32;;;2.58;;
16957;SDS011;8595;52.542;11.974;2022-07-06T04:29:35;3.15;;;2.17;;
16957;SDS011;8595;52.542;11.974;2022-07-06T04:32:02;4.85;;;2.45;;
16957;SDS011;8595;52.542;11.974;2022-07-06T04:34:29;4.70;;;2.63;;
16957;SDS011;8595;52.542;11.974;2022-07-06T04:36:55;7.15;;;2.38;;
16957;SDS011;8595;52.542;11.974;2022-07-06T04:39:22;8.48;;;2.45;;
16957;SDS011;8595;52.542;11.974;2022-07-06T04:42:02;5.25;;;2.20;;
16957;SDS011;8595;52.542;11.974;2022-07-06T04:44:29;5.15;;;2.50;;
16957;SDS011;8595;52.542;11.974;2022-07-06T04:46:55;6.78;;;2.25;;
16957;SDS011;8595;52.542;11.974;2022-07-06T04:49:22;3.40;;;2.20;;
16957;SDS011;8595;52.542;11.974;2022-07-06T04:51:49;9.35;;;2.53;;
16957;SDS011;8595;52.542;11.974;2022-07-06T04:54:16;5.20;;;2.22;;
16957;SDS011;8595;52.542;11.974;2022-07-06T04:56:42;6.22;;;2.30;;
16957;SDS011;8595;52.542;11.974;2022-07-06T04:59:10;4.95;;;2.17;;
16957;SDS011;8595;52.542;11.974;2022-07-06T05:01:37;2.72;;;2.03;;
16957;SDS011;8595;52.542;11.974;2022-07-06T05:04:03;4.85;;;1.90;;
16957;SDS011;8595;52.542;11.974;2022-07-06T05:06:30;7.00;;;2.60;;
16957;SDS011;8595;52.542;11.974;2022-07-06T05:08:56;6.80;;;2.30;;
16957;SDS011;8595;52.542;11.974;2022-07-06T05:11:24;8.77;;;2.10;;
16957;SDS011;8595;52.542;11.974;2022-07-06T05:13:51;3.60;;;2.42;;
16957;SDS011;8595;52.542;11.974;2022-07-06T05:16:18;5.18;;;2.22;;
16957;SDS011;8595;52.542;11.974;2022-07-06T05:18:45;4.50;;;2.50;;
16957;SDS011;8595;52.542;11.974;2022-07-06T05:21:12;6.70;;;2.28;;
16957;SDS011;8595;52.542;11.974;2022-07-06T05:23:38;8.13;;;2.20;;
16957;SDS011;8595;52.542;11.974;2022-07-06T05:26:05;5.93;;;2.63;;
16957;SDS011;8595;52.542;11.974;2022-07-06T05:28:32;7.55;;;2.25;;
16957;SDS011;8595;52.542;11.974;2022-07-06T05:30:59;4.85;;;2.08;;
16957;SDS011;8595;52.542;11.974;2022-07-06T05:33:28;5.50;;;2.10;;
16957;SDS011;8595;52.542;11.974;2022-07-06T05:35:54;6.10;;;2.05;;
16957;SDS011;8595;52.542;11.974;2022-07-06T05:38:21;2.95;;;1.83;;
16957;SDS011;8595;52.542;11.974;2022-07-06T05:40:48;5.47;;;2.08;;
16957;SDS011;8595;52.542;11.974;2022-07-06T05:43:14;8.32;;;2.28;;
16957;SDS011;8595;52.542;11.974;2022-07-06T05:45:41;5.20;;;1.73;;
16957;SDS011;8595;52.542;11.974;2022-07-06T05:48:08;4.43;;;2.22;;
16957;SDS011;8595;52.542;11.974;2022-07-06T05:50:53;4.63;;;2.08;;
16957;SDS011;8595;52.542;11.974;2022-07-06T05:53:20;4.43;;;1.92;;
16957;SDS011;8595;52.542;11.974;2022-07-06T05:55:47;3.10;;;1.88;;
16957;SDS011;8595;52.542;11.974;2022-07-06T05:58:14;5.78;;;2.25;;
16957;SDS011;8595;52.542;11.974;2022-07-06T06:00:41;4.85;;;1.92;;
16957;SDS011;8595;52.542;11.974;2022-07-06T06:03:08;6.18;;;2.03;;
16957;SDS011;8595;52.542;11.974;2022-07-06T06:05:34;3.85;;;1.70;;
16957;SDS011;8595;52.542;11.974;2022-07-06T06:08:03;4.95;;;2.03;;
16957;SDS011;8595;52.542;11.974;2022-07-06T06:10:30;2.80;;;1.80;;
16957;SDS011;8595;52.542;11.974;2022-07-06T06:12:57;7.15;;;2.75;;
16957;SDS011;8595;52.542;11.974;2022-07-06T06:15:24;8.55;;;2.30;;
16957;SDS011;8595;52.542;11.974;2022-07-06T06:17:50;4.07;;;2.10;;
16957;SDS011;8595;52.542;11.974;2022-07-06T06:20:17;7.53;;;2.00;;
16957;SDS011;8595;52.542;11.974;2022-07-06T06:22:44;7.40;;;2.40;;
16957;SDS011;8595;52.542;11.974;2022-07-06T06:25:14;6.18;;;2.20;;
16957;SDS011;8595;52.542;11.974;2022-07-06T06:27:41;7.07;;;2.63;;
16957;SDS011;8595;52.542;11.974;2022-07-06T06:30:08;6.85;;;1.75;;
16957;SDS011;8595;52.542;11.974;2022-07-06T06:32:35;5.15;;;1.70;;
16957;SDS011;8595;52.542;11.974;2022-07-06T06:35:02;12.30;;;2.35;;
16957;SDS011;8595;52.542;11.974;2022-07-06T06:37:29;10.15;;;2.25;;
16957;SDS011;8595;52.542;11.974;2022-07-06T06:39:55;8.95;;;2.45;;
16957;SDS011;8595;52.542;11.974;2022-07-06T06:42:23;5.10;;;2.15;;
16957;SDS011;8595;52.542;11.974;2022-07-06T06:44:50;3.72;;;1.65;;
16957;SDS011;8595;52.542;11.974;2022-07-06T06:47:17;6.88;;;2.03;;
16957;SDS011;8595;52.542;11.974;2022-07-06T06:49:44;5.68;;;2.13;;
16957;SDS011;8595;52.542;11.974;2022-07-06T06:52:10;6.32;;;2.15;;
16957;SDS011;8595;52.542;11.974;2022-07-06T06:54:37;7.60;;;1.98;;
16957;SDS011;8595;52.542;11.974;2022-07-06T06:57:04;4.95;;;1.92;;
16957;SDS011;8595;52.542;11.974;2022-07-06T06:59:32;7.40;;;2.25;;
16957;SDS011;8595;52.542;11.974;2022-07-06T07:01:58;6.88;;;1.88;;
16957;SDS011;8595;52.542;11.974;2022-07-06T07:04:25;5.15;;;1.85;;
16957;SDS011;8595;52.542;11.974;2022-07-06T07:06:52;7.35;;;2.20;;
16957;SDS011;8595;52.542;11.974;2022-07-06T07:09:18;4.68;;;1.70;;
16957;SDS011;8595;52.542;11.974;2022-07-06T07:11:45;4.63;;;1.50;;
16957;SDS011;8595;52.542;11.974;2022-07-06T07:14:11;4.57;;;1.60;;
16957;SDS011;8595;52.542;11.974;2022-07-06T07:16:39;3.60;;;1.70;;
16957;SDS011;8595;52.542;11.974;2022-07-06T07:19:06;4.95;;;1.77;;
16957;SDS011;8595;52.542;11.974;2022-07-06T07:21:32;8.23;;;2.42;;
16957;SDS011;8595;52.542;11.974;2022-07-06T07:23:59;8.15;;;1.83;;
16957;SDS011;8595;52.542;11.974;2022-07-06T07:26:25;5.85;;;1.67;;
16957;SDS011;8595;52.542;11.974;2022-07-06T07:28:52;5.05;;;2.10;;
16957;SDS011;8595;52.542;11.974;2022-07-06T07:31:18;5.90;;;1.60;;
16957;SDS011;8595;52.542;11.974;2022-07-06T07:33:46;4.30;;;1.52;;
16957;SDS011;8595;52.542;11.974;2022-07-06T07:36:13;4.10;;;1.90;;
16957;SDS011;8595;52.542;11.974;2022-07-06T07:38:39;2.78;;;1.42;;
16957;SDS011;8595;52.542;11.974;2022-07-06T07:41:06;5.55;;;1.55;;
16957;SDS011;8595;52.542;11.974;2022-07-06T07:43:36;1.92;;;1.33;;
16957;SDS011;8595;52.542;11.974;2022-07-06T07:46:02;3.38;;;1.38;;
16957;SDS011;8595;52.542;11.974;2022-07-06T07:48:29;2.83;;;1.40;;
16957;SDS011;8595;52.542;11.974;2022-07-06T07:50:57;2.50;;;1.42;;
16957;SDS011;8595;52.542;11.974;2022-07-06T07:53:23;3.25;;;1.25;;
16957;SDS011;8595;52.542;11.974;2022-07-06T07:55:50;4.63;;;1.30;;
16957;SDS011;8595;52.542;11.974;2022-07-06T07:58:16;7.18;;;1.25;;
16957;SDS011;8595;52.542;11.974;2022-07-06T08:00:43;3.97;;;1.60;;
16957;SDS011;8595;52.542;11.974;2022-07-06T08:03:10;3.40;;;1.42;;
16957;SDS011;8595;52.542;11.974;2022-07-06T08:05:37;5.13;;;1.60;;
16957;SDS011;8595;52.542;11.974;2022-07-06T08:08:05;4.78;;;1.30;;
16957;SDS011;8595;52.542;11.974;2022-07-06T08:10:32;6.00;;;1.50;;
16957;SDS011;8595;52.542;11.974;2022-07-06T08:12:58;3.05;;;1.27;;
16957;SDS011;8595;52.542;11.974;2022-07-06T08:15:25;4.43;;;1.30;;
16957;SDS011;8595;52.542;11.974;2022-07-06T08:17:52;3.80;;;1.30;;
16957;SDS011;8595;52.542;11.974;2022-07-06T08:20:19;5.25;;;1.55;;
16957;SDS011;8595;52.542;11.974;2022-07-06T08:22:46;3.58;;;1.48;;
16957;SDS011;8595;52.542;11.974;2022-07-06T08:25:14;4.95;;;1.40;;
16957;SDS011;8595;52.542;11.974;2022-07-06T08:27:40;3.75;;;1.10;;
16957;SDS011;8595;52.542;11.974;2022-07-06T08:30:07;1.55;;;1.20;;
16957;SDS011;8595;52.542;11.974;2022-07-06T08:32:36;2.08;;;0.90;;
16957;SDS011;8595;52.542;11.974;2022-07-06T08:35:03;3.08;;;1.20;;
16957;SDS011;8595;52.542;11.974;2022-07-06T08:37:30;7.32;;;1.45;;
16957;SDS011;8595;52.542;11.974;2022-07-06T08:39:57;4.95;;;1.67;;
16957;SDS011;8595;52.542;11.974;2022-07-06T08:42:25;3.78;;;1.38;;
16957;SDS011;8595;52.542;11.974;2022-07-06T08:44:56;3.63;;;1.65;;
16957;SDS011;8595;52.542;11.974;2022-07-06T08:47:25;5.70;;;1.42;;
16957;SDS011;8595;52.542;11.974;2022-07-06T08:49:53;4.82;;;2.10;;
16957;SDS011;8595;52.542;11.974;2022-07-06T08:52:21;4.15;;;1.52;;
16957;SDS011;8595;52.542;11.974;2022-07-06T08:54:48;4.85;;;1.70;;
16957;SDS011;8595;52.542;11.974;2022-07-06T08:57:15;7.13;;;1.80;;
16957;SDS011;8595;52.542;11.974;2022-07-06T08:59:44;3.90;;;1.60;;
16957;SDS011;8595;52.542;11.974;2022-07-06T09:02:11;4.32;;;1.92;;
16957;SDS011;8595;52.542;11.974;2022-07-06T09:04:39;2.45;;;1.38;;
16957;SDS011;8595;52.542;11.974;2022-07-06T09:07:09;2.20;;;1.20;;
16957;SDS011;8595;52.542;11.974;2022-07-06T09:09:35;6.63;;;1.42;;
16957;SDS011;8595;52.542;11.974;2022-07-06T09:12:03;5.80;;;1.30;;
16957;SDS011;8595;52.542;11.974;2022-07-06T09:14:35;3.85;;;1.30;;
16957;SDS011;8595;52.542;11.974;2022-07-06T09:17:03;4.28;;;1.23;;
16957;SDS011;8595;52.542;11.974;2022-07-06T09:19:32;3.17;;;1.17;;
16957;SDS011;8595;52.542;11.974;2022-07-06T09:21:59;2.53;;;1.13;;
16957;SDS011;8595;52.542;11.974;2022-07-06T09:24:26;3.85;;;1.13;;
16957;SDS011;8595;52.542;11.974;2022-07-06T09:26:53;3.42;;;1.08;;
16957;SDS011;8595;52.542;11.974;2022-07-06T09:29:26;4.25;;;1.00;;
16957;SDS011;8595;52.542;11.974;2022-07-06T09:31:56;0.88;;;0.57;;
16957;SDS011;8595;52.542;11.974;2022-07-06T09:34:25;4.15;;;1.20;;
16957;SDS011;8595;52.542;11.974;2022-07-06T09:37:05;5.45;;;0.80;;
16957;SDS011;8595;52.542;11.974;2022-07-06T09:39:32;7.97;;;1.02;;
16957;SDS011;8595;52.542;11.974;2022-07-06T09:42:00;2.75;;;0.90;;
16957;SDS011;8595;52.542;11.974;2022-07-06T09:44:29;2.15;;;0.80;;
16957;SDS011;8595;52.542;11.974;2022-07-06T09:46:57;3.90;;;1.00;;
16957;SDS011;8595;52.542;11.974;2022-07-06T09:49:26;4.85;;;1.35;;
16957;SDS011;8595;52.542;11.974;2022-07-06T09:51:55;2.80;;;0.77;;
16957;SDS011;8595;52.542;11.974;2022-07-06T09:54:22;6.25;;;1.45;;
16957;SDS011;8595;52.542;11.974;2022-07-06T09:56:50;1.60;;;0.75;;
16957;SDS011;8595;52.542;11.974;2022-07-06T09:59:17;2.60;;;1.00;;
16957;SDS011;8595;52.542;11.974;2022-07-06T10:01:46;2.13;;;0.75;;
16957;SDS011;8595;52.542;11.974;2022-07-06T10:04:16;4.93;;;1.00;;
16957;SDS011;8595;52.542;11.974;2022-07-06T10:06:46;1.95;;;0.90;;
16957;SDS011;8595;52.542;11.974;2022-07-06T10:09:14;2.97;;;0.90;;
16957;SDS011;8595;52.542;11.974;2022-07-06T10:11:42;4.35;;;1.05;;
16957;SDS011;8595;52.542;11.974;2022-07-06T10:14:10;1.85;;;0.80;;
16957;SDS011;8595;52.542;11.974;2022-07-06T10:16:40;2.63;;;1.00;;
16957;SDS011;8595;52.542;11.974;2022-07-06T10:19:08;3.95;;;1.40;;
16957;SDS011;8595;52.542;11.974;2022-07-06T10:21:35;4.00;;;0.95;;
16957;SDS011;8595;52.542;11.974;2022-07-06T10:24:05;3.10;;;0.80;;
16957;SDS011;8595;52.542;11.974;2022-07-06T10:26:33;2.10;;;0.98;;
16957;SDS011;8595;52.542;11.974;2022-07-06T10:29:00;3.85;;;0.80;;
16957;SDS011;8595;52.542;11.974;2022-07-06T10:31:27;2.80;;;0.88;;
16957;SDS011;8595;52.542;11.974;2022-07-06T10:33:55;2.92;;;1.00;;
16957;SDS011;8595;52.542;11.974;2022-07-06T10:36:23;3.10;;;1.10;;
16957;SDS011;8595;52.542;11.974;2022-07-06T10:38:51;3.78;;;1.15;;
16957;SDS011;8595;52.542;11.974;2022-07-06T10:41:29;3.72;;;1.20;;
16957;SDS011;8595;52.542;11.974;2022-07-06T10:43:56;5.05;;;1.27;;
16957;SDS011;8595;52.542;11.974;2022-07-06T10:46:27;3.50;;;1.05;;
16957;SDS011;8595;52.542;11.974;2022-07-06T10:48:54;5.43;;;1.25;;
16957;SDS011;8595;52.542;11.974;2022-07-06T10:51:23;4.45;;;1.10;;
16957;SDS011;8595;52.542;11.974;2022-07-06T10:53:55;4.38;;;1.13;;
16957;SDS011;8595;52.542;11.974;2022-07-06T10:56:31;38.08;;;4.95;;
16957;SDS011;8595;52.542;11.974;2022-07-06T10:59:01;16.48;;;3.45;;
16957;SDS011;8595;52.542;11.974;2022-07-06T11:01:28;3.90;;;1.20;;
16957;SDS011;8595;52.542;11.974;2022-07-06T11:04:04;2.17;;;0.80;;
16957;SDS011;8595;52.542;11.974;2022-07-06T11:06:32;1.63;;;1.00;;
16957;SDS011;8595;52.542;11.974;2022-07-06T11:09:00;3.40;;;1.08;;
16957;SDS011;8595;52.542;11.974;2022-07-06T11:11:38;3.30;;;0.98;;
16957;SDS011;8595;52.542;11.974;2022-07-06T11:14:07;2.20;;;0.98;;
16957;SDS011;8595;52.542;11.974;2022-07-06T11:16:36;3.30;;;1.00;;
16957;SDS011;8595;52.542;11.974;2022-07-06T11:19:05;2.00;;;0.73;;
16957;SDS011;8595;52.542;11.974;2022-07-06T11:21:35;6.65;;;1.10;;
16957;SDS011;8595;52.542;11.974;2022-07-06T11:24:12;3.05;;;1.15;;
16957;SDS011;8595;52.542;11.974;2022-07-06T11:26:42;2.90;;;0.98;;
16957;SDS011;8595;52.542;11.974;2022-07-06T11:29:11;2.08;;;0.90;;
16957;SDS011;8595;52.542;11.974;2022-07-06T11:31:39;2.75;;;1.00;;
16957;SDS011;8595;52.542;11.974;2022-07-06T11:34:07;1.15;;;0.90;;
16957;SDS011;8595;52.542;11.974;2022-07-06T11:36:35;1.00;;;0.70;;
16957;SDS011;8595;52.542;11.974;2022-07-06T11:39:03;0.98;;;0.70;;
16957;SDS011;8595;52.542;11.974;2022-07-06T11:41:31;2.35;;;0.65;;
16957;SDS011;8595;52.542;11.974;2022-07-06T11:43:59;3.83;;;0.98;;
16957;SDS011;8595;52.542;11.974;2022-07-06T11:46:26;3.88;;;0.82;;
16957;SDS011;8595;52.542;11.974;2022-07-06T11:48:55;4.03;;;1.00;;
16957;SDS011;8595;52.542;11.974;2022-07-06T11:51:23;1.83;;;0.80;;
16957;SDS011;8595;52.542;11.974;2022-07-06T11:53:51;1.77;;;0.63;;
16957;SDS011;8595;52.542;11.974;2022-07-06T11:56:20;3.08;;;0.80;;
16957;SDS011;8595;52.542;11.974;2022-07-06T11:58:50;1.58;;;0.73;;
16957;SDS011;8595;52.542;11.974;2022-07-06T12:01:20;2.60;;;0.88;;
16957;SDS011;8595;52.542;11.974;2022-07-06T12:03:48;2.72;;;0.82;;
16957;SDS011;8595;52.542;11.974;2022-07-06T12:06:17;1.50;;;0.65;;
16957;SDS011;8595;52.542;11.974;2022-07-06T12:08:45;2.95;;;0.95;;
16957;SDS011;8595;52.542;11.974;2022-07-06T12:11:18;6.03;;;0.88;;
16957;SDS011;8595;52.542;11.974;2022-07-06T12:13:46;3.17;;;1.05;;
16957;SDS011;8595;52.542;11.974;2022-07-06T12:16:13;4.22;;;1.02;;
16957;SDS011;8595;52.542;11.974;2022-07-06T12:18:43;1.33;;;0.98;;
16957;SDS011;8595;52.542;11.974;2022-07-06T12:21:11;1.98;;;0.82;;
16957;SDS011;8595;52.542;11.974;2022-07-06T12:23:39;5.10;;;0.93;;
16957;SDS011;8595;52.542;11.974;2022-07-06T12:26:07;1.75;;;0.98;;
16957;SDS011;8595;52.542;11.974;2022-07-06T12:28:34;3.50;;;1.23;;
16957;SDS011;8595;52.542;11.974;2022-07-06T12:31:01;4.25;;;0.85;;
16957;SDS011;8595;52.542;11.974;2022-07-06T12:33:28;6.28;;;1.20;;
16957;SDS011;8595;52.542;11.974;2022-07-06T12:35:57;2.95;;;0.80;;
16957;SDS011;8595;52.542;11.974;2022-07-06T12:38:33;2.75;;;1.02;;
16957;SDS011;8595;52.542;11.974;2022-07-06T12:41:00;6.50;;;1.30;;
16957;SDS011;8595;52.542;11.974;2022-07-06T12:43:34;3.30;;;1.15;;
16957;SDS011;8595;52.542;11.974;2022-07-06T12:48:51;17.25;;;3.60;;
16957;SDS011;8595;52.542;11.974;2022-07-06T12:51:19;7.88;;;1.35;;
16957;SDS011;8595;52.542;11.974;2022-07-06T12:53:47;2.55;;;1.10;;
16957;SDS011;8595;52.542;11.974;2022-07-06T12:56:14;1.83;;;1.10;;
16957;SDS011;8595;52.542;11.974;2022-07-06T12:58:54;2.67;;;0.88;;
16957;SDS011;8595;52.542;11.974;2022-07-06T13:01:21;4.30;;;0.93;;
16957;SDS011;8595;52.542;11.974;2022-07-06T13:03:48;4.28;;;1.40;;
16957;SDS011;8595;52.542;11.974;2022-07-06T13:06:27;2.85;;;1.17;;
16957;SDS011;8595;52.542;11.974;2022-07-06T13:08:55;2.55;;;1.20;;
16957;SDS011;8595;52.542;11.974;2022-07-06T13:11:22;4.47;;;1.15;;
16957;SDS011;8595;52.542;11.974;2022-07-06T13:13:49;6.53;;;1.85;;
16957;SDS011;8595;52.542;11.974;2022-07-06T13:16:15;3.13;;;1.05;;
16957;SDS011;8595;52.542;11.974;2022-07-06T13:18:42;3.58;;;1.15;;
16957;SDS011;8595;52.542;11.974;2022-07-06T13:21:09;8.10;;;2.13;;
16957;SDS011;8595;52.542;11.974;2022-07-06T13:23:37;2.47;;;1.08;;
16957;SDS011;8595;52.542;11.974;2022-07-06T13:26:04;5.68;;;1.35;;
16957;SDS011;8595;52.542;11.974;2022-07-06T13:28:30;3.17;;;1.33;;
16957;SDS011;8595;52.542;11.974;2022-07-06T13:30:57;5.45;;;1.70;;
16957;SDS011;8595;52.542;11.974;2022-07-06T13:33:24;6.28;;;1.55;;
16957;SDS011;8595;52.542;11.974;2022-07-06T13:35:50;2.70;;;1.08;;
16957;SDS011;8595;52.542;11.974;2022-07-06T13:38:17;6.47;;;1.48;;
16957;SDS011;8595;52.542;11.974;2022-07-06T13:40:45;1.95;;;0.90;;
16957;SDS011;8595;52.542;11.974;2022-07-06T13:43:11;14.65;;;2.22;;
16957;SDS011;8595;52.542;11.974;2022-07-06T13:45:38;13.25;;;2.25;;
16957;SDS011;8595;52.542;11.974;2022-07-06T13:48:05;3.40;;;1.20;;
16957;SDS011;8595;52.542;11.974;2022-07-06T13:50:31;2.03;;;1.00;;
16957;SDS011;8595;52.542;11.974;2022-07-06T13:52:58;8.88;;;1.85;;
16957;SDS011;8595;52.542;11.974;2022-07-06T13:55:25;4.93;;;1.17;;
16957;SDS011;8595;52.542;11.974;2022-07-06T13:57:53;2.20;;;1.00;;
16957;SDS011;8595;52.542;11.974;2022-07-06T14:00:19;2.13;;;1.23;;
16957;SDS011;8595;52.542;11.974;2022-07-06T14:02:46;2.90;;;1.00;;
16957;SDS011;8595;52.542;11.974;2022-07-06T14:05:13;2.25;;;1.10;;
16957;SDS011;8595;52.542;11.974;2022-07-06T14:07:40;8.02;;;0.90;;
16957;SDS011;8595;52.542;11.974;2022-07-06T14:10:06;1.98;;;0.93;;
16957;SDS011;8595;52.542;11.974;2022-07-06T14:12:33;5.63;;;1.15;;
16957;SDS011;8595;52.542;11.974;2022-07-06T14:15:01;3.13;;;1.10;;
16957;SDS011;8595;52.542;11.974;2022-07-06T14:17:28;2.67;;;0.95;;
16957;SDS011;8595;52.542;11.974;2022-07-06T14:19:55;5.78;;;1.25;;
16957;SDS011;8595;52.542;11.974;2022-07-06T14:22:22;3.88;;;1.65;;
16957;SDS011;8595;52.542;11.974;2022-07-06T14:24:48;2.78;;;1.10;;
16957;SDS011;8595;52.542;11.974;2022-07-06T14:27:15;4.05;;;1.25;;
16957;SDS011;8595;52.542;11.974;2022-07-06T14:29:41;6.72;;;0.88;;
16957;SDS011;8595;52.542;11.974;2022-07-06T14:32:09;2.83;;;0.90;;
16957;SDS011;8595;52.542;11.974;2022-07-06T14:34:36;2.22;;;0.75;;
16957;SDS011;8595;52.542;11.974;2022-07-06T14:37:03;10.75;;;1.20;;
16957;SDS011;8595;52.542;11.974;2022-07-06T14:39:30;12.10;;;2.55;;
16957;SDS011;8595;52.542;11.974;2022-07-06T14:41:57;4.05;;;1.20;;
16957;SDS011;8595;52.542;11.974;2022-07-06T14:44:23;2.10;;;0.90;;
16957;SDS011;8595;52.542;11.974;2022-07-06T14:46:51;3.85;;;0.90;;
16957;SDS011;8595;52.542;11.974;2022-07-06T14:49:19;4.10;;;0.90;;
16957;SDS011;8595;52.542;11.974;2022-07-06T14:51:45;4.53;;;0.98;;
16957;SDS011;8595;52.542;11.974;2022-07-06T14:54:13;4.20;;;0.80;;